ΕΜΥ, Εθνική Μετεωρολογική Υπηρεσία - Δελτία Καιρού, Προγνώσεις

ΑΕΡΟΝΑΥΤΙΛΙΑ

GREEK AIRPORTS CODES

LGIO 051550Z AUTO 33004KT 260V360 //// -RA ////// 16/16 Q1014 RE//=

EUROPEAN AIRPORTS CODES

LFPO 051530Z 27012KT 9999 BKN036 BKN053 24/17 Q1016 NOSIG=